createdAt,value
2022-08-08T00:00:55.093Z,29.989
2022-08-08T00:05:21.435Z,29.992
2022-08-08T00:10:28.034Z,29.981
2022-08-08T00:15:24.503Z,29.975
2022-08-08T00:20:19.914Z,29.972
2022-08-08T00:25:19.867Z,29.975
2022-08-08T00:30:17.520Z,29.977
2022-08-08T00:35:20.421Z,29.979
2022-08-08T00:41:09.292Z,29.980
2022-08-08T00:45:21.270Z,29.980
2022-08-08T00:50:19.967Z,29.977
2022-08-08T00:55:16.977Z,29.974
2022-08-08T01:00:16.946Z,29.979
2022-08-08T01:05:41.830Z,29.979
2022-08-08T01:10:19.961Z,29.978
2022-08-08T01:15:37.072Z,29.978
2022-08-08T01:20:22.164Z,29.980
2022-08-08T01:25:16.942Z,29.981
2022-08-08T01:30:16.978Z,29.979
2022-08-08T01:35:30.178Z,29.977
2022-08-08T01:40:20.134Z,29.976
2022-08-08T01:45:19.968Z,29.976
2022-08-08T01:50:26.530Z,29.973
2022-08-08T01:56:29.927Z,29.974
2022-08-08T01:56:30.382Z,29.974
2022-08-08T02:00:20.030Z,29.971
2022-08-08T02:05:20.402Z,29.971
2022-08-08T02:10:30.247Z,29.972
2022-08-08T02:15:20.038Z,29.974
2022-08-08T02:21:00.594Z,29.973
2022-08-08T02:25:21.402Z,29.974
2022-08-08T02:30:20.947Z,29.973
2022-08-08T02:35:19.984Z,29.969
2022-08-08T02:40:20.033Z,29.966
2022-08-08T02:45:18.843Z,29.968
2022-08-08T02:50:20.036Z,29.967
2022-08-08T02:55:20.759Z,29.967
2022-08-08T03:00:31.101Z,29.966
2022-08-08T03:05:17.034Z,29.965
2022-08-08T03:10:33.793Z,29.966
2022-08-08T03:16:03.867Z,29.964
2022-08-08T03:20:20.043Z,29.962
2022-08-08T03:25:19.995Z,29.961
2022-08-08T03:30:20.082Z,29.962
2022-08-08T03:35:21.506Z,29.963
2022-08-08T03:40:30.438Z,29.965
2022-08-08T03:46:03.210Z,29.969
2022-08-08T03:50:24.673Z,29.970
2022-08-08T03:55:56.720Z,29.971
2022-08-08T04:00:19.300Z,29.970
2022-08-08T04:05:22.723Z,29.968
2022-08-08T04:10:17.779Z,29.966
2022-08-08T04:15:22.282Z,29.968
2022-08-08T04:20:19.277Z,29.965
2022-08-08T04:25:19.275Z,29.964
2022-08-08T04:30:19.903Z,29.963
2022-08-08T04:35:20.224Z,29.964
2022-08-08T04:40:23.751Z,29.962
2022-08-08T04:45:19.237Z,29.961
2022-08-08T04:50:24.835Z,29.961
2022-08-08T04:55:19.226Z,29.961
2022-08-08T05:00:19.659Z,29.961
2022-08-08T05:05:20.538Z,29.959
2022-08-08T05:10:19.287Z,29.958
2022-08-08T05:15:20.827Z,29.960
2022-08-08T05:20:19.272Z,29.960
2022-08-08T05:25:16.293Z,29.956
2022-08-08T05:30:16.294Z,29.954
2022-08-08T05:35:16.399Z,29.955
2022-08-08T05:40:21.618Z,29.954
2022-08-08T05:45:25.113Z,29.952
2022-08-08T05:50:20.780Z,29.951
2022-08-08T05:55:19.299Z,29.951
2022-08-08T06:00:24.761Z,29.949
2022-08-08T06:05:35.048Z,29.948
2022-08-08T06:10:24.770Z,29.947
2022-08-08T06:15:19.293Z,29.948
2022-08-08T06:20:16.482Z,29.947
2022-08-08T06:25:17.950Z,29.945
2022-08-08T06:30:20.136Z,29.945
2022-08-08T06:36:00.601Z,29.946
2022-08-08T06:40:19.372Z,29.946
2022-08-08T06:45:19.314Z,29.946
2022-08-08T06:50:31.893Z,29.946
2022-08-08T06:55:20.898Z,29.944
2022-08-08T07:00:30.400Z,29.947
2022-08-08T07:05:20.316Z,29.947
2022-08-08T07:10:19.349Z,29.947
2022-08-08T07:15:32.063Z,29.946
2022-08-08T07:20:16.326Z,29.946
2022-08-08T07:25:17.496Z,29.944
2022-08-08T07:30:25.652Z,29.942
2022-08-08T07:35:19.354Z,29.940
2022-08-08T07:40:28.846Z,29.939
2022-08-08T07:45:17.819Z,29.938
2022-08-08T07:50:16.365Z,29.936
2022-08-08T07:55:16.369Z,29.934
2022-08-08T08:00:19.376Z,29.932
2022-08-08T08:05:20.818Z,29.934
2022-08-08T08:10:30.027Z,29.933
2022-08-08T08:15:21.493Z,29.935
2022-08-08T08:20:19.349Z,29.935
2022-08-08T08:25:40.910Z,29.934
2022-08-08T08:30:19.491Z,29.932
2022-08-08T08:35:16.398Z,29.932
2022-08-08T08:40:17.951Z,29.931
2022-08-08T08:45:22.929Z,29.930
2022-08-08T08:50:31.919Z,29.931
2022-08-08T08:55:20.105Z,29.933
2022-08-08T09:00:19.510Z,29.937
2022-08-08T09:05:49.147Z,29.939
2022-08-08T09:10:21.230Z,29.938
2022-08-08T09:15:40.930Z,29.937
2022-08-08T09:21:57.056Z,29.937
2022-08-08T09:22:01.639Z,29.937
2022-08-08T09:25:16.369Z,29.935
2022-08-08T09:30:17.593Z,29.936
2022-08-08T09:35:16.446Z,29.938
2022-08-08T09:40:20.302Z,29.937
2022-08-08T09:46:01.699Z,29.938
2022-08-08T09:50:19.690Z,29.938
2022-08-08T09:56:03.012Z,29.938
2022-08-08T10:00:49.779Z,29.939
2022-08-08T10:05:20.076Z,29.940
2022-08-08T10:10:16.449Z,29.941
2022-08-08T10:15:19.586Z,29.945
2022-08-08T10:20:24.648Z,29.943
2022-08-08T10:25:19.441Z,29.943
2022-08-08T10:30:59.780Z,29.943
2022-08-08T10:35:20.633Z,29.944
2022-08-08T10:40:19.793Z,29.945
2022-08-08T10:45:19.409Z,29.945
2022-08-08T10:50:16.446Z,29.945
2022-08-08T10:55:41.624Z,29.946
2022-08-08T11:00:20.660Z,29.947
2022-08-08T11:05:19.365Z,29.949
2022-08-08T11:10:19.802Z,29.947
2022-08-08T11:15:16.464Z,29.947
2022-08-08T11:20:25.069Z,29.944
2022-08-08T11:25:16.601Z,29.944
2022-08-08T11:30:24.841Z,29.944
2022-08-08T11:35:24.958Z,29.944
2022-08-08T11:40:16.545Z,29.945
2022-08-08T11:45:19.443Z,29.945
2022-08-08T11:50:16.465Z,29.946
2022-08-08T11:55:19.412Z,29.945
2022-08-08T12:00:16.504Z,29.944
2022-08-08T12:05:22.895Z,29.945
2022-08-08T12:10:19.503Z,29.946
2022-08-08T12:15:19.431Z,29.945
2022-08-08T12:20:19.457Z,29.943
2022-08-08T12:25:19.472Z,29.942
2022-08-08T12:30:24.936Z,29.939
2022-08-08T12:35:19.478Z,29.938
2022-08-08T12:40:23.504Z,29.938
2022-08-08T12:45:58.381Z,29.936
2022-08-08T12:50:19.487Z,29.937
2022-08-08T12:55:29.224Z,29.937
2022-08-08T13:00:20.383Z,29.936
2022-08-08T13:05:27.071Z,29.934
2022-08-08T13:10:17.225Z,29.931
2022-08-08T13:15:21.000Z,29.930
2022-08-08T13:20:19.549Z,29.927
2022-08-08T13:25:21.225Z,29.926
2022-08-08T13:30:26.020Z,29.924
2022-08-08T13:35:25.093Z,29.924
2022-08-08T13:40:17.680Z,29.924
2022-08-08T13:45:16.590Z,29.924
2022-08-08T13:50:35.745Z,29.923
2022-08-08T13:55:29.271Z,29.921
2022-08-08T14:00:19.556Z,29.918
2022-08-08T14:05:22.021Z,29.918
2022-08-08T14:10:32.507Z,29.916
2022-08-08T14:15:20.093Z,29.914
2022-08-08T14:20:57.863Z,29.912
2022-08-08T14:25:18.109Z,29.913
2022-08-08T14:30:19.583Z,29.912
2022-08-08T14:35:19.526Z,29.910
2022-08-08T14:40:19.595Z,29.911
2022-08-08T14:45:29.079Z,29.908
2022-08-08T14:50:37.652Z,29.908
2022-08-08T14:55:22.513Z,29.909
2022-08-08T15:00:16.518Z,29.906
2022-08-08T15:05:19.561Z,29.906
2022-08-08T15:10:16.561Z,29.904
2022-08-08T15:16:01.626Z,29.902
2022-08-08T15:20:19.529Z,29.901
2022-08-08T15:25:29.250Z,29.899
2022-08-08T15:30:21.124Z,29.898
2022-08-08T15:35:19.555Z,29.896
2022-08-08T15:40:19.540Z,29.896
2022-08-08T15:45:22.825Z,29.893
2022-08-08T15:50:20.927Z,29.891
2022-08-08T15:55:16.527Z,29.889
2022-08-08T16:00:27.618Z,29.885
2022-08-08T16:05:21.423Z,29.885
2022-08-08T16:13:03.009Z,29.885
2022-08-08T16:13:03.267Z,29.885
2022-08-08T16:13:10.887Z,29.885
2022-08-08T16:15:19.540Z,29.884
2022-08-08T16:20:19.522Z,29.883
2022-08-08T16:25:19.518Z,29.882
2022-08-08T16:30:32.357Z,29.880
2022-08-08T16:35:23.102Z,29.880
2022-08-08T16:40:21.184Z,29.876
2022-08-08T16:46:36.541Z,29.873
2022-08-08T16:46:36.992Z,29.873
2022-08-08T16:50:16.585Z,29.870
2022-08-08T16:55:34.016Z,29.870
2022-08-08T17:00:26.594Z,29.869
2022-08-08T17:05:19.613Z,29.868
2022-08-08T17:10:19.681Z,29.865
2022-08-08T17:15:21.346Z,29.865
2022-08-08T17:20:19.618Z,29.857
2022-08-08T17:25:16.808Z,29.859
2022-08-08T17:30:23.407Z,29.855
2022-08-08T17:35:52.742Z,29.856
2022-08-08T17:40:16.775Z,29.851
2022-08-08T17:45:23.280Z,29.852
2022-08-08T17:50:21.146Z,29.850
2022-08-08T17:56:06.836Z,29.848
2022-08-08T18:00:19.789Z,29.846
2022-08-08T18:05:22.265Z,29.844
2022-08-08T18:10:19.627Z,29.843
2022-08-08T18:15:16.611Z,29.844
2022-08-08T18:20:36.977Z,29.844
2022-08-08T18:25:21.439Z,29.841
2022-08-08T18:30:19.673Z,29.837
2022-08-08T18:35:16.841Z,29.837
2022-08-08T18:40:19.667Z,29.837
2022-08-08T18:45:44.794Z,29.834
2022-08-08T18:50:19.576Z,29.835
2022-08-08T18:55:19.588Z,29.829
2022-08-08T19:00:21.478Z,29.829
2022-08-08T19:05:19.600Z,29.829
2022-08-08T19:10:19.605Z,29.826
2022-08-08T19:15:21.620Z,29.828
2022-08-08T19:20:16.702Z,29.822
2022-08-08T19:26:02.323Z,29.820
2022-08-08T19:26:30.817Z,29.820
2022-08-08T19:30:24.525Z,29.822
2022-08-08T19:35:25.355Z,29.818
2022-08-08T19:40:21.922Z,29.818
2022-08-08T19:45:58.565Z,29.817
2022-08-08T19:50:19.695Z,29.815
2022-08-08T19:55:19.617Z,29.814
2022-08-08T20:00:30.283Z,29.813
2022-08-08T20:05:19.691Z,29.811
2022-08-08T20:10:21.287Z,29.808
2022-08-08T20:15:21.821Z,29.809
2022-08-08T20:20:20.608Z,29.810
2022-08-08T20:25:20.155Z,29.810
2022-08-08T20:30:53.333Z,29.810
2022-08-08T20:35:22.928Z,29.804
2022-08-08T20:40:17.084Z,29.803
2022-08-08T20:45:55.121Z,29.801
2022-08-08T20:50:19.657Z,29.799
2022-08-08T20:55:25.562Z,29.802
2022-08-08T21:00:19.678Z,29.800
2022-08-08T21:05:16.688Z,29.801
2022-08-08T21:10:20.821Z,29.795
2022-08-08T21:16:05.970Z,29.797
2022-08-08T21:20:18.415Z,29.799
2022-08-08T21:25:19.706Z,29.799
2022-08-08T21:30:22.211Z,29.800
2022-08-08T21:36:16.673Z,29.796
2022-08-08T21:40:21.114Z,29.796
2022-08-08T21:45:44.759Z,29.795
2022-08-08T21:48:03.729Z,29.795
2022-08-08T21:48:07.001Z,29.795
2022-08-08T21:50:21.277Z,29.797
2022-08-08T21:56:18.387Z,29.798
2022-08-08T21:56:31.340Z,29.798
2022-08-08T22:00:16.725Z,29.797
2022-08-08T22:05:19.717Z,29.796
2022-08-08T22:10:32.100Z,29.797
2022-08-08T22:15:16.765Z,29.801
2022-08-08T22:20:23.631Z,29.798
2022-08-08T22:25:25.374Z,29.799
2022-08-08T22:30:29.397Z,29.798
2022-08-08T22:35:16.731Z,29.799
2022-08-08T22:40:19.793Z,29.804
2022-08-08T22:45:19.694Z,29.799
2022-08-08T22:50:27.479Z,29.804
2022-08-08T22:55:16.746Z,29.805
2022-08-08T23:00:21.365Z,29.805
2022-08-08T23:05:21.479Z,29.804
2022-08-08T23:10:21.415Z,29.805
2022-08-08T23:16:39.330Z,29.806
2022-08-08T23:16:39.673Z,29.806
2022-08-08T23:20:16.818Z,29.805
2022-08-08T23:25:18.265Z,29.805
2022-08-08T23:30:19.748Z,29.806
2022-08-08T23:35:21.161Z,29.805
2022-08-08T23:40:21.990Z,29.804
2022-08-08T23:45:16.806Z,29.809
2022-08-08T23:50:30.824Z,29.810
2022-08-08T23:55:22.772Z,29.809
